Time;durP1;ratioP1;P1;durP2;ratioP2;P2;SDS_P1;SDS_P2;PMS_P1;PMS_P2;Temp;Humidity;BMP_temperature;BMP_pressure;BME280_temperature;BME280_humidity;BME280_pressure;Samples;Min_cycle;Max_cycle;Signal;HPM_P1;HPM_P2
2022/03/06 00:01:18;;;;;;;;;;;4.80;61.90;;;;;;5037183;28;20121;-79
2022/03/06 00:03:45;;;;;;;121.32;108.72;;;4.80;61.80;;;;;;5054519;28;19930;-79
2022/03/06 00:06:13;;;;;;;122.60;110.18;;;4.80;62.10;;;;;;5035997;28;20057;-79
2022/03/06 00:08:40;;;;;;;123.07;110.43;;;4.80;62.30;;;;;;5036057;28;20076;-79
2022/03/06 00:11:08;;;;;;;120.40;107.97;;;4.70;62.30;;;;;;5036480;28;20579;-79
2022/03/06 00:13:36;;;;;;;120.10;107.90;;;4.80;62.50;;;;;;5036433;28;20589;-79
2022/03/06 00:16:04;;;;;;;121.15;108.95;;;4.70;62.50;;;;;;5036348;28;20052;-79
2022/03/06 00:18:31;;;;;;;121.78;109.47;;;4.70;62.60;;;;;;5035733;28;20053;-79
2022/03/06 00:20:59;;;;;;;;;;;4.70;62.70;;;;;;5036790;28;20058;-79
2022/03/06 00:23:26;;;;;;;119.85;107.32;;;4.60;62.60;;;;;;5053253;28;20009;-79
2022/03/06 00:25:53;;;;;;;121.78;109.35;;;4.60;62.70;;;;;;5035871;28;20523;-79
2022/03/06 00:28:19;;;;;;;;;;;4.60;62.90;;;;;;5019989;28;20072;-79
2022/03/06 00:30:50;;;;;;;121.95;109.50;;;4.50;63.10;;;;;;5035952;28;20019;-79
2022/03/06 00:33:16;;;;;;;121.97;109.47;;;4.50;63.10;;;;;;5035834;28;20503;-79
2022/03/06 00:35:43;;;;;;;123.10;110.47;;;4.50;63.30;;;;;;5053918;28;20057;-79
2022/03/06 00:38:10;;;;;;;;;;;4.50;63.40;;;;;;5036191;28;20049;-79
2022/03/06 00:40:37;;;;;;;121.22;108.82;;;4.40;63.20;;;;;;5036370;28;19975;-79
2022/03/06 00:43:05;;;;;;;122.57;110.15;;;4.40;63.30;;;;;;5035490;28;20103;-79
2022/03/06 00:45:31;;;;;;;120.75;108.55;;;4.40;63.50;;;;;;5053644;28;20053;-79
2022/03/06 00:48:00;;;;;;;121.82;109.60;;;4.40;63.70;;;;;;5035276;28;20115;-78
2022/03/06 00:50:27;;;;;;;121.95;109.75;;;4.30;64.00;;;;;;5019375;28;20060;-79
2022/03/06 00:52:54;;;;;;;121.55;109.25;;;4.30;64.30;;;;;;5035823;28;20549;-79
2022/03/06 00:55:20;;;;;;;120.18;107.97;;;4.30;64.50;;;;;;5035883;28;20053;-79
2022/03/06 00:57:47;;;;;;;121.03;108.88;;;4.20;64.70;;;;;;5027398;28;20073;-79
2022/03/06 01:00:15;;;;;;;121.55;109.38;;;4.20;64.90;;;;;;5027777;28;20060;-79
2022/03/06 01:02:42;;;;;;;122.10;110.05;;;4.20;65.20;;;;;;5013620;28;20053;-79
2022/03/06 01:05:10;;;;;;;119.70;107.40;;;4.20;65.40;;;;;;5015494;28;20050;-79
2022/03/06 01:07:37;;;;;;;121.68;109.30;;;4.20;65.40;;;;;;5033263;28;20504;-79
2022/03/06 01:10:05;;;;;;;120.93;108.60;;;4.10;65.60;;;;;;5033770;28;20077;-79
2022/03/06 01:12:32;;;;;;;120.15;108.10;;;4.10;66.00;;;;;;5015749;28;20058;-78
2022/03/06 01:14:59;;;;;;;;;;;4.10;65.90;;;;;;5015802;28;20080;-79
2022/03/06 01:17:26;;;;;;;;;;;4.00;65.90;;;;;;5016079;28;20538;-78
2022/03/06 01:19:53;;;;;;;;;;;4.00;66.20;;;;;;5016384;28;19929;-78
2022/03/06 01:22:21;;;;;;;;;;;4.00;66.30;;;;;;4999727;28;19929;-79
2022/03/06 01:24:48;;;;;;;120.55;107.97;;;3.90;66.50;;;;;;5016046;28;20016;-79
2022/03/06 01:27:15;;;;;;;119.85;107.47;;;3.90;66.20;;;;;;5014913;28;20058;-78
2022/03/06 01:29:42;;;;;;;120.55;108.18;;;3.90;66.60;;;;;;5031426;28;20575;-79
2022/03/06 01:32:09;;;;;;;122.43;109.90;;;3.90;67.00;;;;;;5015244;28;20054;-78
2022/03/06 01:34:35;;;;;;;122.07;109.57;;;3.90;67.10;;;;;;5014879;28;20498;-78
2022/03/06 01:37:02;;;;;;;122.50;109.90;;;3.90;67.40;;;;;;5014995;28;20129;-79
2022/03/06 01:39:31;;;;;;;;;;;3.90;67.50;;;;;;5015620;28;20080;-78
2022/03/06 01:41:57;;;;;;;120.53;108.03;;;3.90;67.60;;;;;;5015165;28;19929;-79
2022/03/06 01:44:24;;;;;;;121.05;108.53;;;3.80;67.60;;;;;;5015193;28;20128;-79
2022/03/06 01:46:51;;;;;;;;;;;3.90;67.80;;;;;;5032521;28;20100;-78
2022/03/06 01:49:18;;;;;;;;;;;3.90;67.90;;;;;;5016088;28;19932;-79
2022/03/06 01:51:45;;;;;;;119.30;106.88;;;3.90;68.30;;;;;;5015336;28;19972;-79
2022/03/06 01:54:13;;;;;;;119.72;107.47;;;3.90;68.00;;;;;;5016750;28;20056;-78
2022/03/06 01:56:43;;;;;;;120.13;107.40;;;3.80;68.10;;;;;;5034571;28;20054;-78
2022/03/06 01:59:11;;;;;;;121.22;108.63;;;3.90;68.60;;;;;;5018059;28;20038;-79
2022/03/06 02:01:38;;;;;;;120.93;108.63;;;3.90;68.70;;;;;;5034705;28;20057;-79
2022/03/06 02:04:04;;;;;;;;;;;3.90;68.80;;;;;;5018628;28;20050;-79
2022/03/06 02:06:31;;;;;;;118.85;106.65;;;3.90;68.80;;;;;;5035292;28;19932;-79
2022/03/06 02:08:58;;;;;;;118.70;106.65;;;3.90;68.80;;;;;;5034359;28;20050;-79
2022/03/06 02:11:27;;;;;;;118.90;106.90;;;3.90;69.10;;;;;;5052426;28;20097;-79
2022/03/06 02:13:56;;;;;;;119.22;107.13;;;3.90;69.30;;;;;;5034713;28;20053;-79
2022/03/06 02:16:23;;;;;;;120.43;108.07;;;3.90;69.60;;;;;;5034705;28;20057;-79
2022/03/06 02:18:50;;;;;;;118.80;106.80;;;3.90;69.80;;;;;;5017861;28;20443;-79
2022/03/06 02:21:18;;;;;;;121.55;109.15;;;3.90;70.00;;;;;;5034615;28;20061;-78
2022/03/06 02:23:47;;;;;;;119.88;107.78;;;3.90;70.10;;;;;;5052245;28;20058;-78
2022/03/06 02:26:14;;;;;;;119.75;107.55;;;3.90;70.30;;;;;;5034452;28;20085;-79
2022/03/06 02:28:42;;;;;;;119.80;107.68;;;3.90;70.40;;;;;;5034300;28;20060;-78
2022/03/06 02:31:11;;;;;;;120.22;107.72;;;3.90;70.50;;;;;;5034485;28;20049;-79
2022/03/06 02:33:38;;;;;;;119.57;107.28;;;3.90;70.70;;;;;;5034628;28;20053;-78
2022/03/06 02:36:06;;;;;;;120.40;108.13;;;3.90;70.80;;;;;;5052130;28;20053;-79
2022/03/06 02:38:35;;;;;;;119.07;106.90;;;3.90;71.00;;;;;;5034273;28;20386;-79
2022/03/06 02:41:01;;;;;;;120.45;108.05;;;3.90;71.20;;;;;;5034201;28;20515;-78
2022/03/06 02:43:28;;;;;;;121.00;108.60;;;3.90;71.30;;;;;;5017336;28;20049;-79
2022/03/06 02:45:55;;;;;;;119.65;107.28;;;3.90;71.30;;;;;;5034065;28;20084;-78
2022/03/06 02:48:22;;;;;;;120.07;107.88;;;3.90;71.40;;;;;;5020436;28;20068;-79
2022/03/06 02:50:51;;;;;;;120.47;108.05;;;3.90;71.50;;;;;;5037323;28;20041;-78
2022/03/06 02:53:22;;;;;;;119.97;107.65;;;3.90;71.60;;;;;;5037774;28;20053;-79
2022/03/06 02:55:51;;;;;;;119.25;107.18;;;4.00;71.90;;;;;;5037570;28;20056;-78
2022/03/06 02:58:18;;;;;;;120.82;108.65;;;3.90;71.90;;;;;;5037160;28;20053;-79
2022/03/06 03:00:45;;;;;;;118.88;106.78;;;3.90;72.00;;;;;;5037454;28;20117;-78
2022/03/06 03:03:12;;;;;;;119.28;107.15;;;3.90;72.10;;;;;;5055137;28;20503;-79
2022/03/06 03:05:38;;;;;;;119.15;107.07;;;3.90;72.30;;;;;;5037197;28;20049;-79
2022/03/06 03:08:06;;;;;;;118.82;106.68;;;3.90;72.40;;;;;;5036962;28;20513;-78
2022/03/06 03:10:32;;;;;;;;;;;3.80;72.50;;;;;;5037442;28;20120;-78
2022/03/06 03:13:01;;;;;;;117.75;105.50;;;3.90;72.30;;;;;;5037565;28;19925;-79
2022/03/06 03:15:28;;;;;;;118.18;105.90;;;3.90;72.50;;;;;;5055224;28;20508;-78
2022/03/06 03:17:55;;;;;;;117.43;105.45;;;3.90;72.60;;;;;;5036903;28;20095;-79
2022/03/06 03:20:22;;;;;;;117.18;105.05;;;3.90;72.70;;;;;;5020322;28;20076;-78
2022/03/06 03:22:48;;;;;;;116.53;104.30;;;3.80;72.70;;;;;;5037081;28;20053;-79
2022/03/06 03:25:15;;;;;;;117.25;105.00;;;3.90;72.80;;;;;;5036896;28;20057;-79
2022/03/06 03:27:42;;;;;;;118.28;106.13;;;3.90;72.90;;;;;;5036698;28;20049;-79
2022/03/06 03:30:12;;;;;;;117.93;105.82;;;3.80;72.80;;;;;;5036233;28;20089;-78
2022/03/06 03:32:40;;;;;;;117.80;105.57;;;3.90;73.00;;;;;;5020630;28;20071;-79
2022/03/06 03:35:08;;;;;;;115.40;103.60;;;3.80;73.00;;;;;;5036826;28;20060;-78
2022/03/06 03:37:35;;;;;;;116.68;104.88;;;3.80;73.00;;;;;;5036610;28;20057;-79
2022/03/06 03:40:03;;;;;;;;;;;3.80;73.00;;;;;;5037061;28;20056;-78
2022/03/06 03:42:30;;;;;;;115.72;103.43;;;3.80;72.60;;;;;;5020812;28;19968;-78
2022/03/06 03:44:57;;;;;;;115.90;103.80;;;3.80;72.80;;;;;;5036468;28;20108;-78
2022/03/06 03:47:25;;;;;;;116.93;105.10;;;3.80;72.90;;;;;;5036580;28;20061;-78
2022/03/06 03:49:52;;;;;;;117.72;105.63;;;3.80;73.00;;;;;;5036511;28;20467;-78
2022/03/06 03:52:19;;;;;;;116.95;105.15;;;3.80;73.10;;;;;;5036602;28;20057;-78
2022/03/06 03:54:46;;;;;;;116.95;105.05;;;3.90;73.10;;;;;;5054252;28;20064;-78
2022/03/06 03:57:15;;;;;;;116.22;104.45;;;3.80;73.00;;;;;;5036553;28;20057;-78
2022/03/06 03:59:42;;;;;;;116.35;104.68;;;3.90;73.00;;;;;;5054150;28;20049;-78
2022/03/06 04:02:09;;;;;;;115.47;103.75;;;3.90;73.10;;;;;;5054156;28;20438;-78
2022/03/06 04:04:37;;;;;;;116.13;104.07;;;3.90;73.00;;;;;;5054788;28;20080;-78
2022/03/06 04:07:04;;;;;;;116.15;104.40;;;3.80;72.90;;;;;;5036449;28;20141;-78
2022/03/06 04:09:31;;;;;;;117.43;105.53;;;3.80;73.00;;;;;;5036259;28;20432;-78
2022/03/06 04:11:58;;;;;;;116.63;104.72;;;3.80;73.00;;;;;;5053731;28;20161;-79
2022/03/06 04:14:25;;;;;;;116.40;104.50;;;3.80;73.00;;;;;;5036374;28;20049;-78
2022/03/06 04:16:52;;;;;;;117.22;105.15;;;3.80;73.10;;;;;;5054131;28;20136;-78
2022/03/06 04:19:19;;;;;;;116.68;104.95;;;3.80;72.90;;;;;;5036047;28;20049;-78
2022/03/06 04:21:47;;;;;;;116.90;105.00;;;3.80;73.00;;;;;;5035927;28;20050;-78
2022/03/06 04:24:14;;;;;;;114.90;103.13;;;3.80;73.10;;;;;;5035727;28;20057;-78
2022/03/06 04:26:41;;;;;;;116.45;104.53;;;3.80;73.10;;;;;;5053502;28;20053;-78
2022/03/06 04:29:08;;;;;;;115.70;103.88;;;3.80;73.10;;;;;;5035334;28;20148;-78
2022/03/06 04:31:35;;;;;;;116.88;104.78;;;3.80;73.10;;;;;;5034950;28;20847;-78
2022/03/06 04:34:02;;;;;;;116.25;104.50;;;3.70;73.10;;;;;;5053964;28;20135;-79
2022/03/06 04:36:28;;;;;;;;;;;3.70;73.10;;;;;;5036651;28;20041;-78
2022/03/06 04:38:57;;;;;;;114.05;102.28;;;3.70;72.60;;;;;;5053815;28;19929;-79
2022/03/06 04:41:24;;;;;;;116.38;104.47;;;3.80;73.00;;;;;;5053618;28;20054;-78
2022/03/06 04:43:52;;;;;;;116.10;104.40;;;3.80;73.00;;;;;;5019356;28;20152;-78
2022/03/06 04:46:19;;;;;;;116.60;104.45;;;3.70;73.10;;;;;;5035876;28;20050;-78
2022/03/06 04:48:46;;;;;;;114.82;103.22;;;3.70;73.00;;;;;;5053320;28;20049;-78
2022/03/06 04:51:13;;;;;;;;;;;3.70;73.10;;;;;;5036177;28;20049;-78
2022/03/06 04:53:40;;;;;;;115.18;103.28;;;3.70;72.70;;;;;;5036056;28;20027;-78
2022/03/06 04:56:08;;;;;;;114.80;103.00;;;3.60;73.10;;;;;;5053579;28;20357;-78
2022/03/06 04:58:35;;;;;;;115.90;103.70;;;3.60;73.30;;;;;;5035305;28;20108;-78
2022/03/06 05:01:03;;;;;;;115.45;103.68;;;3.60;73.30;;;;;;5053409;28;20137;-78
2022/03/06 05:03:30;;;;;;;115.00;103.22;;;3.50;73.40;;;;;;5035255;28;20055;-78
2022/03/06 05:05:56;;;;;;;113.28;101.78;;;3.60;73.60;;;;;;5053518;28;20075;-78
2022/03/06 05:08:26;;;;;;;115.40;103.68;;;3.60;73.60;;;;;;5052755;28;20498;-78
2022/03/06 05:10:53;;;;;;;115.10;103.40;;;3.60;73.60;;;;;;5035108;28;20053;-78
2022/03/06 05:13:22;;;;;;;113.82;102.30;;;3.50;73.50;;;;;;5035584;28;20045;-78
2022/03/06 05:15:49;;;;;;;115.25;103.57;;;3.50;73.60;;;;;;5053250;28;20502;-79
2022/03/06 05:18:16;;;;;;;115.97;104.18;;;3.50;73.80;;;;;;5034688;28;20049;-78
2022/03/06 05:20:44;;;;;;;114.93;103.05;;;3.50;73.70;;;;;;5018682;28;20049;-78
2022/03/06 05:23:11;;;;;;;114.13;102.47;;;3.50;73.80;;;;;;5034973;28;20054;-78
2022/03/06 05:25:37;;;;;;;114.50;102.80;;;3.50;73.80;;;;;;5035131;28;20053;-78
2022/03/06 05:28:05;;;;;;;114.97;102.90;;;3.50;73.80;;;;;;5052701;28;20523;-78
2022/03/06 05:30:34;;;;;;;112.70;101.30;;;3.40;73.90;;;;;;5034598;28;20045;-78
2022/03/06 05:33:01;;;;;;;114.32;102.70;;;3.40;73.90;;;;;;5035030;28;20060;-78
2022/03/06 05:35:28;;;;;;;113.65;101.95;;;3.40;73.90;;;;;;5018706;28;20056;-79
2022/03/06 05:37:55;;;;;;;114.68;102.70;;;3.40;73.80;;;;;;5034778;28;20135;-78
2022/03/06 05:40:22;;;;;;;113.65;101.90;;;3.40;73.80;;;;;;5034957;28;20080;-78
2022/03/06 05:42:49;;;;;;;113.63;102.13;;;3.40;73.80;;;;;;5035044;28;20128;-78
2022/03/06 05:45:16;;;;;;;112.50;101.07;;;3.40;73.90;;;;;;5034730;28;20049;-78
2022/03/06 05:47:45;;;;;;;112.78;101.13;;;3.40;73.80;;;;;;5034125;28;20049;-78
2022/03/06 05:50:12;;;;;;;113.35;101.95;;;3.30;73.70;;;;;;5034850;28;20502;-78
2022/03/06 05:52:39;;;;;;;113.03;101.63;;;3.30;73.70;;;;;;5034531;28;20053;-78
2022/03/06 05:55:07;;;;;;;112.57;101.10;;;3.30;73.70;;;;;;5052717;28;20180;-78
2022/03/06 05:57:35;;;;;;;112.70;101.15;;;3.30;73.70;;;;;;5052275;28;20129;-78
2022/03/06 06:00:02;;;;;;;112.30;100.88;;;3.30;73.70;;;;;;5018058;28;20054;-78
2022/03/06 06:02:31;;;;;;;113.28;101.72;;;3.30;73.90;;;;;;5034726;28;20076;-78
2022/03/06 06:04:59;;;;;;;112.55;100.90;;;3.30;73.90;;;;;;5018718;28;20476;-78
2022/03/06 06:07:26;;;;;;;114.13;102.43;;;3.30;73.90;;;;;;5052785;28;20520;-78
2022/03/06 06:09:53;;;;;;;113.15;101.35;;;3.20;73.90;;;;;;5035575;28;20170;-78
2022/03/06 06:12:21;;;;;;;113.43;102.05;;;3.20;73.90;;;;;;5035295;28;20507;-78
2022/03/06 06:14:48;;;;;;;112.85;101.25;;;3.20;73.90;;;;;;5053416;28;20144;-78
2022/03/06 06:17:15;;;;;;;111.50;100.03;;;3.20;73.90;;;;;;5053277;28;20049;-78
2022/03/06 06:19:42;;;;;;;111.88;100.57;;;3.20;74.00;;;;;;5035270;28;20042;-78
2022/03/06 06:22:10;;;;;;;112.22;100.93;;;3.30;74.00;;;;;;5036185;28;20053;-78
2022/03/06 06:24:37;;;;;;;112.55;101.30;;;3.20;73.90;;;;;;5038730;28;20069;-78
2022/03/06 06:27:05;;;;;;;112.50;101.10;;;3.20;73.90;;;;;;5038486;28;20054;-78
2022/03/06 06:29:31;;;;;;;;;;;3.20;74.00;;;;;;5038856;28;20140;-78
2022/03/06 06:31:59;;;;;;;111.43;99.85;;;3.20;73.90;;;;;;5039098;28;20015;-78
2022/03/06 06:34:26;;;;;;;;;;;3.20;73.90;;;;;;5039281;28;20054;-78
2022/03/06 06:36:57;;;;;;;111.10;99.60;;;3.20;73.70;;;;;;5038747;28;19991;-78
2022/03/06 06:39:26;;;;;;;113.45;101.95;;;3.10;73.80;;;;;;5038390;28;20049;-78
2022/03/06 06:41:53;;;;;;;113.18;101.47;;;3.20;74.00;;;;;;5038603;28;20088;-80
2022/03/06 06:44:20;;;;;;;114.57;102.95;;;3.10;74.10;;;;;;5038364;28;20639;-78
2022/03/06 06:46:47;;;;;;;111.75;100.15;;;3.10;74.20;;;;;;5038443;28;20054;-78
2022/03/06 06:49:14;;;;;;;112.78;101.35;;;3.10;74.20;;;;;;5038589;28;20055;-78
2022/03/06 06:51:41;;;;;;;112.55;101.03;;;3.10;74.30;;;;;;5056276;28;20060;-78
2022/03/06 06:54:08;;;;;;;111.80;100.18;;;3.10;74.50;;;;;;5056322;28;20502;-78
2022/03/06 06:56:36;;;;;;;112.07;100.63;;;3.00;74.50;;;;;;5038297;28;20052;-78
2022/03/06 06:59:03;;;;;;;111.60;100.35;;;3.00;74.70;;;;;;5038110;28;20061;-78
2022/03/06 07:01:30;;;;;;;112.38;100.75;;;3.00;74.80;;;;;;5038362;28;20128;-78
2022/03/06 07:03:57;;;;;;;111.65;100.25;;;3.00;75.00;;;;;;5038367;28;20058;-78
2022/03/06 07:06:24;;;;;;;112.53;101.15;;;3.00;75.00;;;;;;5038035;28;20535;-78
2022/03/06 07:08:51;;;;;;;111.72;100.22;;;2.90;75.10;;;;;;5037951;28;20041;-78
2022/03/06 07:11:18;;;;;;;110.97;99.78;;;2.90;75.30;;;;;;5038080;28;20041;-78
2022/03/06 07:13:47;;;;;;;113.05;101.53;;;2.90;75.40;;;;;;5038191;28;20056;-78
2022/03/06 07:16:14;;;;;;;114.43;102.55;;;2.90;75.50;;;;;;5037932;28;20057;-78
2022/03/06 07:18:41;;;;;;;113.28;101.50;;;2.90;75.60;;;;;;5037665;28;20049;-78
2022/03/06 07:21:08;;;;;;;113.50;101.90;;;2.90;75.80;;;;;;5037980;28;20049;-78
2022/03/06 07:23:35;;;;;;;112.72;101.15;;;2.90;75.70;;;;;;5056181;28;20056;-78
2022/03/06 07:26:02;;;;;;;111.88;100.38;;;2.90;75.80;;;;;;5055757;28;20046;-78
2022/03/06 07:28:29;;;;;;;111.97;100.38;;;2.90;75.90;;;;;;5037676;28;20100;-78
2022/03/06 07:30:58;;;;;;;112.65;100.90;;;2.90;75.90;;;;;;5037799;28;20050;-78
2022/03/06 07:33:25;;;;;;;111.82;100.18;;;2.90;76.10;;;;;;5037581;28;20080;-78
2022/03/06 07:35:52;;;;;;;111.90;100.30;;;2.90;76.30;;;;;;5037554;28;20060;-78
2022/03/06 07:38:18;;;;;;;113.13;101.45;;;2.90;76.40;;;;;;5037618;28;20507;-78
2022/03/06 07:40:45;;;;;;;112.13;100.55;;;3.00;76.40;;;;;;5037650;28;20063;-78
2022/03/06 07:43:12;;;;;;;111.25;99.90;;;3.00;76.50;;;;;;5038023;28;20057;-78
2022/03/06 07:45:40;;;;;;;111.38;100.18;;;3.00;76.60;;;;;;5037456;28;20407;-78
2022/03/06 07:48:08;;;;;;;111.32;99.80;;;3.00;76.70;;;;;;5037435;28;20053;-78
2022/03/06 07:50:35;;;;;;;110.25;98.85;;;3.00;76.80;;;;;;5037678;28;20156;-78
2022/03/06 07:53:02;;;;;;;112.35;100.88;;;3.10;76.90;;;;;;5021179;28;20056;-78
2022/03/06 07:55:29;;;;;;;111.18;99.97;;;3.10;77.00;;;;;;5020881;28;20471;-79
2022/03/06 07:57:56;;;;;;;111.57;100.20;;;3.10;77.10;;;;;;5037277;28;20049;-79
2022/03/06 08:00:23;;;;;;;111.22;99.63;;;3.10;77.10;;;;;;5055566;28;20782;-78
2022/03/06 08:02:50;;;;;;;110.60;99.30;;;3.10;77.00;;;;;;5037427;28;20046;-78
2022/03/06 08:05:19;;;;;;;111.10;99.90;;;3.10;77.00;;;;;;5037236;28;20049;-78
2022/03/06 08:07:46;;;;;;;109.75;98.72;;;3.20;77.10;;;;;;5036883;28;20046;-78
2022/03/06 08:10:13;;;;;;;111.53;100.32;;;3.20;77.10;;;;;;5036402;28;20045;-78
2022/03/06 08:12:41;;;;;;;110.53;99.22;;;3.20;76.90;;;;;;5037149;28;20053;-79
2022/03/06 08:15:09;;;;;;;112.85;101.32;;;3.20;76.70;;;;;;5035948;28;20413;-79
2022/03/06 08:17:36;;;;;;;111.82;100.53;;;3.20;76.80;;;;;;5053742;28;20053;-79
2022/03/06 08:20:05;;;;;;;111.40;100.00;;;3.30;77.00;;;;;;4988717;28;20050;-80
2022/03/06 08:22:33;;;;;;;111.07;99.95;;;3.30;76.90;;;;;;5016969;28;20050;-79
2022/03/06 08:25:01;;;;;;;112.45;101.05;;;3.30;76.80;;;;;;5032018;28;20093;-79
2022/03/06 08:27:27;;;;;;;;;;;3.40;76.70;;;;;;5017262;28;20056;-80
2022/03/06 08:29:55;;;;;;;110.88;99.28;;;3.40;76.50;;;;;;5033547;28;20441;-78
2022/03/06 08:32:22;;;;;;;111.03;99.53;;;3.40;76.50;;;;;;5017264;28;20056;-77
2022/03/06 08:34:51;;;;;;;110.35;99.00;;;3.50;76.20;;;;;;5016913;28;20054;-77
2022/03/06 08:37:18;;;;;;;111.03;99.55;;;3.50;76.30;;;;;;5016485;28;20104;-77
2022/03/06 08:39:47;;;;;;;111.85;100.18;;;3.50;76.20;;;;;;5013532;28;20057;-77
2022/03/06 08:42:15;;;;;;;111.93;100.50;;;3.50;75.70;;;;;;5013933;28;20042;-81
2022/03/06 08:44:42;;;;;;;111.22;100.00;;;3.50;75.50;;;;;;5015610;28;20128;-79
2022/03/06 08:47:10;;;;;;;111.65;100.35;;;3.60;75.40;;;;;;5016826;28;20436;-79
2022/03/06 08:49:37;;;;;;;110.35;99.05;;;3.60;75.20;;;;;;5032225;28;20124;-79
2022/03/06 08:52:05;;;;;;;110.28;98.97;;;3.60;75.20;;;;;;5016915;28;20045;-79
2022/03/06 08:54:31;;;;;;;110.35;99.03;;;3.60;75.10;;;;;;5034562;28;20053;-78
2022/03/06 08:57:00;;;;;;;111.78;100.47;;;3.60;75.00;;;;;;5016840;28;20508;-79
2022/03/06 08:59:27;;;;;;;110.88;99.30;;;3.70;75.00;;;;;;5030054;28;20181;-80
2022/03/06 09:01:57;;;;;;;109.38;98.07;;;3.80;75.00;;;;;;5010574;28;20091;-79
2022/03/06 09:04:26;;;;;;;110.88;99.53;;;3.80;74.80;;;;;;5015690;28;20054;-79
2022/03/06 09:06:56;;;;;;;111.85;100.50;;;3.90;74.80;;;;;;5007273;28;20046;-81
2022/03/06 09:09:26;;;;;;;111.50;100.20;;;3.90;74.40;;;;;;5026562;28;20141;-80
2022/03/06 09:11:56;;;;;;;110.50;99.30;;;3.90;74.10;;;;;;5022211;28;20057;-80
2022/03/06 09:14:28;;;;;;;110.60;99.40;;;4.00;74.10;;;;;;5009687;28;20133;-80
2022/03/06 09:16:58;;;;;;;110.75;99.50;;;4.00;74.30;;;;;;5014047;28;20046;-81
2022/03/06 09:19:28;;;;;;;111.82;100.63;;;4.00;73.70;;;;;;4994526;28;20050;-80
2022/03/06 09:21:56;;;;;;;112.88;101.47;;;4.10;73.20;;;;;;5007272;28;20057;-80
2022/03/06 09:24:27;;;;;;;112.57;101.18;;;4.10;73.10;;;;;;5003054;28;20137;-80
2022/03/06 09:26:58;;;;;;;112.53;101.05;;;4.10;73.10;;;;;;5013967;28;20120;-78
2022/03/06 09:29:29;;;;;;;112.20;100.82;;;4.20;73.20;;;;;;5007187;28;20050;-80
2022/03/06 09:31:56;;;;;;;111.75;100.35;;;4.20;72.80;;;;;;4996485;28;20173;-80
2022/03/06 09:34:26;;;;;;;113.13;101.72;;;4.30;73.40;;;;;;4951948;28;20878;-80
2022/03/06 09:36:57;;;;;;;111.10;99.85;;;4.30;73.30;;;;;;5025007;28;20050;-81
2022/03/06 09:39:27;;;;;;;111.47;99.95;;;4.40;72.50;;;;;;5003379;28;20057;-80
2022/03/06 09:41:57;;;;;;;113.43;102.13;;;4.50;71.60;;;;;;4996660;28;20046;-80
2022/03/06 09:44:30;;;;;;;113.03;101.43;;;4.60;71.50;;;;;;4996407;28;20047;-80
2022/03/06 09:46:57;;;;;;;112.70;101.50;;;4.60;70.90;;;;;;5013792;28;20097;-80
2022/03/06 09:49:27;;;;;;;113.65;102.35;;;4.70;71.00;;;;;;5017057;28;20536;-80
2022/03/06 09:51:57;;;;;;;111.65;100.40;;;4.70;70.50;;;;;;5020292;28;20962;-79
2022/03/06 09:54:27;;;;;;;111.95;100.65;;;4.70;69.70;;;;;;5021684;28;20141;-80
2022/03/06 09:56:57;;;;;;;110.78;99.55;;;4.80;69.90;;;;;;4998149;28;20057;-79
2022/03/06 09:59:30;;;;;;;111.72;100.53;;;4.80;69.10;;;;;;4999211;28;20054;-80
2022/03/06 10:02:00;;;;;;;108.97;97.82;;;4.90;68.90;;;;;;5016506;28;20092;-80
2022/03/06 10:04:29;;;;;;;110.10;99.00;;;5.00;68.10;;;;;;5002838;28;20140;-79
2022/03/06 10:07:02;;;;;;;110.20;99.20;;;5.00;67.20;;;;;;5015553;28;20504;-79
2022/03/06 10:09:29;;;;;;;113.32;102.07;;;5.10;65.90;;;;;;5017964;28;20065;-77
2022/03/06 10:11:57;;;;;;;112.53;101.22;;;5.10;66.80;;;;;;5017495;28;20042;-79
2022/03/06 10:14:39;;;;;;;111.05;100.05;;;5.20;66.80;;;;;;5018525;28;20046;-77
2022/03/06 10:19:57;;;;;;;112.93;101.72;;;5.30;67.20;;;;;;5014646;28;20124;-78
2022/03/06 10:22:26;;;;;;;112.82;101.72;;;5.30;67.40;;;;;;5017284;28;20105;-77
2022/03/06 10:24:56;;;;;;;112.18;100.95;;;5.40;66.70;;;;;;5017916;28;20053;-77
2022/03/06 10:27:44;;;;;;;113.03;101.80;;;5.50;65.50;;;;;;5017098;28;20054;-76
2022/03/06 10:30:31;;;;;;;111.57;100.35;;;5.60;65.30;;;;;;5010982;28;20364;-77
2022/03/06 10:33:00;;;;;;;113.25;102.05;;;5.60;65.50;;;;;;4999513;28;20050;-76
2022/03/06 10:35:35;;;;;;;113.20;101.68;;;5.70;64.10;;;;;;5002382;28;20054;-77
2022/03/06 10:38:18;;;;;;;113.20;101.97;;;5.70;63.60;;;;;;4996879;28;20046;-77
2022/03/06 10:40:45;;;;;;;111.15;99.97;;;5.80;64.00;;;;;;5006111;28;20205;-77
2022/03/06 10:43:23;;;;;;;112.55;101.35;;;5.80;64.00;;;;;;4998349;28;20053;-77
2022/03/06 10:45:53;;;;;;;113.68;102.43;;;5.80;64.30;;;;;;4998302;28;20527;-77
2022/03/06 10:48:20;;;;;;;113.45;102.25;;;5.90;64.30;;;;;;4998001;28;20058;-77
2022/03/06 10:50:46;;;;;;;;;;;6.00;63.70;;;;;;4998228;28;20046;-77
2022/03/06 10:53:21;;;;;;;111.88;100.68;;;6.00;63.30;;;;;;4998749;28;19936;-77
2022/03/06 10:55:49;;;;;;;112.90;101.53;;;6.10;63.30;;;;;;4981344;28;20050;-76
2022/03/06 10:58:17;;;;;;;111.25;100.22;;;6.20;63.00;;;;;;5007366;28;20234;-77
2022/03/06 11:00:44;;;;;;;109.20;98.35;;;6.20;62.60;;;;;;5034524;28;20055;-77
2022/03/06 11:03:13;;;;;;;110.03;99.00;;;6.30;63.00;;;;;;5034375;28;20132;-77
2022/03/06 11:05:43;;;;;;;109.88;98.88;;;6.40;63.10;;;;;;5035809;28;20554;-77
2022/03/06 11:08:13;;;;;;;109.80;98.88;;;6.50;62.50;;;;;;5016883;28;20492;-77
2022/03/06 11:10:42;;;;;;;109.55;98.60;;;6.60;61.60;;;;;;5034419;28;20048;-77
2022/03/06 11:13:12;;;;;;;108.80;98.00;;;6.70;61.70;;;;;;5035748;28;20135;-77
2022/03/06 11:15:39;;;;;;;110.15;99.25;;;6.80;62.10;;;;;;5017696;28;20068;-77
2022/03/06 11:18:06;;;;;;;109.03;98.32;;;6.80;61.80;;;;;;5033693;28;20054;-77
2022/03/06 11:20:35;;;;;;;110.50;99.57;;;6.90;61.70;;;;;;5034217;28;20080;-76
2022/03/06 11:23:11;;;;;;;109.95;99.03;;;7.00;60.90;;;;;;5034484;28;20053;-76
2022/03/06 11:25:46;;;;;;;111.32;100.22;;;7.10;60.60;;;;;;5033741;28;20056;-78
2022/03/06 11:28:26;;;;;;;109.93;99.13;;;7.20;60.10;;;;;;5033843;28;20058;-78
2022/03/06 11:30:53;;;;;;;110.55;99.72;;;7.30;60.50;;;;;;5033810;28;20058;-78
2022/03/06 11:33:21;;;;;;;110.63;99.82;;;7.40;60.40;;;;;;5018037;28;20440;-78
2022/03/06 11:35:50;;;;;;;110.38;99.57;;;7.50;60.00;;;;;;5016848;28;20089;-78
2022/03/06 11:38:18;;;;;;;110.30;99.55;;;7.50;60.00;;;;;;4997267;28;20509;-77
2022/03/06 11:40:49;;;;;;;110.75;99.90;;;7.60;59.60;;;;;;5016972;28;20057;-77
2022/03/06 11:43:43;;;;;;;111.53;100.63;;;7.70;59.50;;;;;;5016647;28;20050;-78
2022/03/06 11:46:21;;;;;;;110.60;99.47;;;7.80;60.00;;;;;;5017556;28;20520;-78
2022/03/06 11:49:12;;;;;;;110.57;99.88;;;7.80;59.10;;;;;;5030603;28;20049;-77
2022/03/06 11:51:45;;;;;;;109.95;99.25;;;7.90;59.80;;;;;;5016124;28;20050;-78
2022/03/06 11:54:15;;;;;;;110.20;99.28;;;8.00;59.20;;;;;;4999859;28;20586;-77
2022/03/06 11:57:01;;;;;;;111.93;101.05;;;8.10;59.20;;;;;;5031943;28;20054;-78
2022/03/06 11:59:46;;;;;;;110.10;99.35;;;8.20;59.30;;;;;;5011776;28;20058;-78
2022/03/06 12:02:19;;;;;;;111.22;100.43;;;8.30;59.50;;;;;;5016195;28;20038;-77
2022/03/06 12:04:51;;;;;;;111.97;100.72;;;8.40;59.40;;;;;;5011221;28;20053;-77
2022/03/06 12:07:21;;;;;;;111.25;100.35;;;8.50;58.80;;;;;;5014763;28;20542;-77
2022/03/06 12:09:51;;;;;;;110.07;99.47;;;8.60;58.20;;;;;;5015326;28;20585;-77
2022/03/06 12:12:21;;;;;;;112.95;102.05;;;8.60;58.70;;;;;;5014736;28;20045;-77
2022/03/06 12:14:50;;;;;;;111.93;100.93;;;8.70;58.30;;;;;;5015121;28;20136;-78
2022/03/06 12:17:22;;;;;;;113.30;102.43;;;8.80;58.00;;;;;;4999310;28;20089;-78
2022/03/06 12:20:25;;;;;;;111.03;100.22;;;8.90;58.20;;;;;;5015301;28;20077;-79
2022/03/06 12:23:00;;;;;;;113.20;102.05;;;9.10;57.90;;;;;;5016909;28;20184;-79
2022/03/06 12:25:31;;;;;;;113.28;102.40;;;9.10;57.40;;;;;;5014581;28;20504;-78
2022/03/06 12:28:31;;;;;;;111.85;101.05;;;9.20;57.30;;;;;;4996119;28;20117;-79
2022/03/06 12:30:58;;;;;;;112.30;101.45;;;9.30;57.80;;;;;;5012949;28;20060;-78
2022/03/06 12:33:34;;;;;;;111.85;101.15;;;9.40;56.80;;;;;;5033292;28;20061;-77
2022/03/06 12:36:23;;;;;;;112.05;101.25;;;9.40;57.10;;;;;;5016438;28;20042;-77